Decoded Metar for NWWW (NOUMEA in NEW CALEDONIA) (IATA:NOU) | Meteo·Mobile Aviation Weather
aviador You're here:

NWWW Decoded Metar

NOUMEA in NEW CALEDONIA
Report Time2019-07-20 13:30:00
UTC Time2019-07-20 13:49:36
Flight Rules vfr VFR
Wind100° at 01 kt
W.Decomp.*RWY 11: 0.9 kt HW 0.4 kt LCW
Visibility9999 m
Phenomena:N/A
Clouds:Few 034 Hf
Broken 068 Hf
Expected CloudBase > 800 ft AGL from Temp-Dew spread
Ceiling6,800 ft
Temp14°C (ISA -1)
Dew Point12°C (88% RH)
QNH1018 hPa
Density Alt-36 ft
Elevation52 ft
Report Wrong Elevation
Raw Report
NWWW 201330Z AUTO 10001KT 9999 FEW034 BKN068 14/12 Q1018 NOSIG=

Extra information for NWWW:More info

Metar Taf Metar & Taf Last 4 Metars F.Rules Stats Wind Profile Meteogram Temp Stats Airport Information Weather charts Add Link Nearby VenuesMetar ALERT Operation Metar Decoded Social comments